Landover Hills, Maryland
Current Conditions -  °F | °C
As of 7:40 PM on Monday 22 Dec 2014 (Local Time) from KCGS Reporting Station
Overcast Overcast  
Wind Chill: 36°   Ceiling: 800
Heat Index: 36°   Visibility: 2.5mi
Dew Point: 36°   Wind: 3mph
Humidity: 100%   Direction: 290°WNW
Pressure: 30.19"   Gusts: NA
Location:  38.9535°N, 76.8858°W
Report Text: KCGS 230040Z AUTO 29003KT 2 1/2SM OVC008 02/02 A3019 RMK AO1
Loading
Personal Weather Stations






























Interactive Weather Map New forecast layout! Learn more

10-Day Weather Forecast

Advertisements
Track Severe Weather on mobile